createdAt,value
2022-12-25T00:01:06.505Z,5.78
2022-12-25T00:03:33.297Z,5.72
2022-12-25T00:06:00.040Z,5.76
2022-12-25T00:08:26.776Z,5.83
2022-12-25T00:11:05.567Z,5.75
2022-12-25T00:13:32.556Z,5.78
2022-12-25T00:15:59.742Z,5.80
2022-12-25T00:18:26.424Z,5.86
2022-12-25T00:21:00.421Z,5.86
2022-12-25T00:23:27.648Z,5.88
2022-12-25T00:25:54.894Z,5.85
2022-12-25T00:28:23.080Z,5.83
2022-12-25T00:30:50.113Z,5.84
2022-12-25T00:33:17.319Z,5.85
2022-12-25T00:35:44.355Z,5.85
2022-12-25T00:38:11.228Z,5.84
2022-12-25T00:40:44.262Z,5.87
2022-12-25T00:43:11.168Z,5.96
2022-12-25T00:45:37.862Z,5.89
2022-12-25T00:48:04.778Z,5.85
2022-12-25T00:50:31.424Z,5.92
2022-12-25T00:52:58.092Z,5.92
2022-12-25T00:55:24.794Z,6.02
2022-12-25T00:57:51.503Z,6.11
2022-12-25T01:00:18.398Z,6.15
2022-12-25T01:02:45.284Z,6.16
2022-12-25T01:05:12.057Z,6.12
2022-12-25T01:07:38.751Z,5.96
2022-12-25T01:10:24.614Z,5.91
2022-12-25T01:12:52.248Z,5.79
2022-12-25T01:15:19.669Z,5.93
2022-12-25T01:17:46.407Z,5.80
2022-12-25T01:20:15.618Z,5.87
2022-12-25T01:22:42.942Z,5.91
2022-12-25T01:25:10.784Z,5.79
2022-12-25T01:27:38.176Z,5.86
2022-12-25T01:30:06.240Z,5.94
2022-12-25T01:32:33.016Z,5.96
2022-12-25T01:34:59.624Z,5.96
2022-12-25T01:37:26.270Z,6.00
2022-12-25T01:39:52.979Z,5.90
2022-12-25T01:42:23.673Z,5.99
2022-12-25T01:44:50.353Z,6.07
2022-12-25T01:47:18.365Z,6.08
2022-12-25T01:49:49.808Z,6.13
2022-12-25T01:52:24.658Z,6.09
2022-12-25T01:54:58.004Z,6.16
2022-12-25T01:57:32.537Z,6.02
2022-12-25T02:00:00.836Z,6.11
2022-12-25T02:02:29.308Z,6.20
2022-12-25T02:05:04.581Z,6.24
2022-12-25T02:07:34.818Z,6.28
2022-12-25T02:10:01.659Z,6.13
2022-12-25T02:12:32.777Z,6.16
2022-12-25T02:15:06.116Z,6.17
2022-12-25T02:17:56.086Z,6.11
2022-12-25T02:20:53.206Z,5.99
2022-12-25T02:24:08.620Z,6.04
2022-12-25T02:26:47.572Z,5.99
2022-12-25T02:29:51.289Z,6.04
2022-12-25T02:32:30.837Z,6.07
2022-12-25T02:35:13.006Z,6.07
2022-12-25T02:37:55.658Z,6.20
2022-12-25T02:40:30.683Z,6.06
2022-12-25T02:43:36.633Z,6.04
2022-12-25T02:46:26.348Z,6.04
2022-12-25T02:49:36.128Z,5.99
2022-12-25T02:52:35.431Z,5.97
2022-12-25T02:55:26.386Z,5.98
2022-12-25T02:58:15.709Z,5.94
2022-12-25T03:01:05.887Z,5.82
2022-12-25T03:03:53.342Z,5.83
2022-12-25T03:06:41.272Z,5.76
2022-12-25T03:09:29.228Z,5.73
2022-12-25T03:12:31.306Z,5.77
2022-12-25T03:15:16.732Z,5.87
2022-12-25T03:17:43.518Z,5.29
2022-12-25T03:20:29.344Z,5.39
2022-12-25T03:23:15.324Z,5.60
2022-12-25T03:26:00.685Z,5.72
2022-12-25T03:28:27.464Z,5.82
2022-12-25T03:31:11.871Z,5.90
2022-12-25T03:34:07.980Z,5.91
2022-12-25T03:37:12.930Z,5.85
2022-12-25T03:39:57.331Z,5.95
2022-12-25T03:42:49.624Z,5.82
2022-12-25T03:45:44.886Z,5.92
2022-12-25T03:48:12.900Z,5.92
2022-12-25T03:51:10.665Z,5.90
2022-12-25T03:54:09.854Z,5.70
2022-12-25T03:56:56.837Z,5.59
2022-12-25T03:59:43.227Z,5.64
2022-12-25T04:02:28.924Z,5.75
2022-12-25T04:05:14.542Z,5.87
2022-12-25T04:08:00.052Z,5.84
2022-12-25T04:10:45.600Z,5.88
2022-12-25T04:13:31.100Z,5.87
2022-12-25T04:16:16.373Z,5.92
2022-12-25T04:19:01.693Z,5.89
2022-12-25T04:21:46.937Z,5.90
2022-12-25T04:24:32.264Z,5.96
2022-12-25T04:27:17.504Z,5.86
2022-12-25T04:30:02.535Z,5.71
2022-12-25T04:32:47.950Z,5.65
2022-12-25T04:35:33.423Z,5.82
2022-12-25T04:38:00.107Z,5.88
2022-12-25T04:40:26.925Z,5.93
2022-12-25T04:42:53.611Z,5.92
2022-12-25T04:45:20.378Z,5.94
2022-12-25T04:47:47.101Z,5.99
2022-12-25T04:50:13.821Z,5.86
2022-12-25T04:52:41.630Z,5.95
2022-12-25T04:55:09.225Z,5.94
2022-12-25T04:57:35.825Z,5.74
2022-12-25T05:00:03.103Z,5.70
2022-12-25T05:02:29.949Z,5.66
2022-12-25T05:04:56.752Z,5.67
2022-12-25T05:07:23.393Z,5.65
2022-12-25T05:09:50.095Z,5.65
2022-12-25T05:12:16.721Z,5.63
2022-12-25T05:14:43.380Z,5.82
2022-12-25T05:17:10.085Z,5.80
2022-12-25T05:19:36.709Z,5.79
2022-12-25T05:22:03.307Z,5.86
2022-12-25T05:24:30.058Z,5.85
2022-12-25T05:26:56.734Z,5.85
2022-12-25T05:29:23.386Z,5.84
2022-12-25T05:31:50.093Z,5.88
2022-12-25T05:34:16.788Z,5.86
2022-12-25T05:36:43.524Z,5.86
2022-12-25T05:39:10.178Z,5.91
2022-12-25T05:41:36.809Z,5.97
2022-12-25T05:44:03.616Z,5.90
2022-12-25T05:46:30.378Z,5.95
2022-12-25T05:48:57.021Z,5.97
2022-12-25T05:51:23.597Z,6.02
2022-12-25T05:53:50.330Z,6.01
2022-12-25T05:56:17.212Z,6.00
2022-12-25T05:58:43.824Z,6.07
2022-12-25T06:01:16.026Z,6.03
2022-12-25T06:03:42.919Z,6.00
2022-12-25T06:06:10.661Z,6.01
2022-12-25T06:08:37.695Z,6.03
2022-12-25T06:11:06.575Z,6.01
2022-12-25T06:13:34.815Z,5.97
2022-12-25T06:16:07.707Z,5.92
2022-12-25T06:18:38.920Z,5.89
2022-12-25T06:21:07.833Z,5.83
2022-12-25T06:23:34.996Z,5.85
2022-12-25T06:26:05.377Z,5.77
2022-12-25T06:28:32.041Z,5.76
2022-12-25T06:30:58.781Z,5.69
2022-12-25T06:33:25.456Z,5.61
2022-12-25T06:35:52.054Z,5.52
2022-12-25T06:38:18.776Z,5.41
2022-12-25T06:40:45.356Z,5.38
2022-12-25T06:43:12.005Z,5.32
2022-12-25T06:45:38.714Z,5.32
2022-12-25T06:48:05.545Z,5.34
2022-12-25T06:50:32.267Z,5.31
2022-12-25T06:52:58.847Z,5.30
2022-12-25T06:55:25.474Z,5.25
2022-12-25T06:57:52.177Z,5.23
2022-12-25T07:00:19.124Z,5.19
2022-12-25T07:02:49.848Z,5.16
2022-12-25T07:05:16.773Z,5.12
2022-12-25T07:07:43.442Z,5.04
2022-12-25T07:10:10.517Z,4.96
2022-12-25T07:12:37.181Z,4.94
2022-12-25T07:15:04.130Z,4.89
2022-12-25T07:17:30.842Z,4.81
2022-12-25T07:19:57.685Z,4.80
2022-12-25T07:22:24.402Z,4.78
2022-12-25T07:24:51.115Z,4.78
2022-12-25T07:27:17.745Z,4.50
2022-12-25T07:29:44.423Z,4.62
2022-12-25T07:32:11.088Z,4.64
2022-12-25T07:34:37.786Z,4.68
2022-12-25T07:37:04.403Z,4.66
2022-12-25T07:39:31.093Z,4.58
2022-12-25T07:41:57.746Z,4.51
2022-12-25T07:44:24.733Z,4.64
2022-12-25T07:46:51.369Z,4.70
2022-12-25T07:49:18.136Z,4.61
2022-12-25T07:51:44.820Z,4.74
2022-12-25T07:54:11.799Z,4.91
2022-12-25T07:56:38.493Z,4.95
2022-12-25T07:59:05.169Z,4.94
2022-12-25T08:01:32.166Z,4.84
2022-12-25T08:04:01.295Z,4.92
2022-12-25T08:06:33.663Z,4.85
2022-12-25T08:09:06.160Z,4.69
2022-12-25T08:11:32.954Z,4.68
2022-12-25T08:13:59.614Z,4.69
2022-12-25T08:16:26.466Z,4.68
2022-12-25T08:18:53.537Z,4.74
2022-12-25T08:21:20.194Z,4.98
2022-12-25T08:23:48.253Z,5.29
2022-12-25T08:26:19.927Z,5.42
2022-12-25T08:28:47.902Z,5.47
2022-12-25T08:31:21.505Z,5.33
2022-12-25T08:33:49.551Z,5.31
2022-12-25T08:36:17.460Z,5.20
2022-12-25T08:38:44.300Z,5.36
2022-12-25T08:41:11.919Z,5.39
2022-12-25T08:43:39.431Z,5.62
2022-12-25T08:46:07.153Z,5.89
2022-12-25T08:48:34.577Z,6.18
2022-12-25T08:51:02.075Z,6.00
2022-12-25T08:53:28.717Z,6.45
2022-12-25T08:56:06.477Z,6.73
2022-12-25T08:58:33.470Z,6.85
2022-12-25T09:01:00.410Z,7.45
2022-12-25T09:03:27.772Z,7.91
2022-12-25T09:05:54.709Z,7.94
2022-12-25T09:08:22.125Z,8.09
2022-12-25T09:10:49.120Z,8.36
2022-12-25T09:13:15.833Z,8.66
2022-12-25T09:15:42.553Z,8.24
2022-12-25T09:18:09.375Z,8.46
2022-12-25T09:20:36.029Z,8.59
2022-12-25T09:23:02.967Z,8.06
2022-12-25T09:25:30.341Z,9.69
2022-12-25T09:27:57.283Z,10.81
2022-12-25T09:30:23.921Z,10.96
2022-12-25T09:32:50.565Z,10.64
2022-12-25T09:35:18.949Z,11.64
2022-12-25T09:37:45.978Z,13.02
2022-12-25T09:40:18.888Z,14.70
2022-12-25T09:42:46.791Z,14.96
2022-12-25T09:45:25.769Z,14.52
2022-12-25T09:47:57.886Z,15.07
2022-12-25T09:50:39.528Z,15.42
2022-12-25T09:53:12.880Z,16.35
2022-12-25T09:55:49.336Z,17.66
2022-12-25T09:58:16.234Z,18.94
2022-12-25T10:01:01.533Z,18.30
2022-12-25T10:03:53.040Z,17.48
2022-12-25T10:06:30.507Z,17.62
2022-12-25T10:09:20.497Z,17.37
2022-12-25T10:11:47.205Z,17.20
2022-12-25T10:14:29.248Z,16.41
2022-12-25T10:17:22.288Z,17.01
2022-12-25T10:19:54.841Z,17.96
2022-12-25T10:22:51.443Z,16.92
2022-12-25T10:25:22.291Z,18.58
2022-12-25T10:27:53.561Z,19.54
2022-12-25T10:30:23.893Z,20.02
2022-12-25T10:32:51.661Z,19.56
2022-12-25T10:35:22.181Z,16.70
2022-12-25T10:37:57.491Z,16.53
2022-12-25T10:40:24.074Z,14.55
2022-12-25T10:42:58.891Z,14.73
2022-12-25T10:45:25.518Z,15.77
2022-12-25T10:48:07.123Z,16.82
2022-12-25T10:50:42.289Z,16.91
2022-12-25T10:53:24.614Z,17.35
2022-12-25T10:56:16.098Z,17.55
2022-12-25T10:58:44.006Z,18.05
2022-12-25T11:01:11.397Z,17.68
2022-12-25T11:03:46.799Z,16.69
2022-12-25T11:06:28.957Z,17.78
2022-12-25T11:08:58.481Z,18.21
2022-12-25T11:11:26.575Z,18.73
2022-12-25T11:14:01.490Z,17.51
2022-12-25T11:16:36.214Z,17.33
2022-12-25T11:19:03.988Z,17.78
2022-12-25T11:21:36.523Z,17.14
2022-12-25T11:24:06.257Z,17.46
2022-12-25T11:26:47.352Z,17.28
2022-12-25T11:29:26.725Z,16.81
2022-12-25T11:31:56.004Z,17.54
2022-12-25T11:34:33.642Z,17.74
2022-12-25T11:37:02.589Z,17.27
2022-12-25T11:39:35.402Z,17.23
2022-12-25T11:42:05.413Z,16.03
2022-12-25T11:44:41.057Z,16.35
2022-12-25T11:47:25.854Z,16.32
2022-12-25T11:50:00.982Z,15.61
2022-12-25T11:52:33.811Z,15.96
2022-12-25T11:55:08.333Z,16.97
2022-12-25T11:57:36.815Z,16.82
2022-12-25T12:00:10.325Z,17.49
2022-12-25T12:03:04.313Z,16.60
2022-12-25T12:05:45.374Z,16.81
2022-12-25T12:08:13.767Z,15.65
2022-12-25T12:11:25.928Z,15.47
2022-12-25T12:14:11.012Z,15.67
2022-12-25T12:16:38.117Z,15.13
2022-12-25T12:19:26.708Z,14.86
2022-12-25T12:21:57.124Z,14.33
2022-12-25T12:24:28.215Z,13.68
2022-12-25T12:27:07.037Z,12.98
2022-12-25T12:29:44.308Z,12.54
2022-12-25T12:32:36.007Z,12.62
2022-12-25T12:35:09.368Z,12.22
2022-12-25T12:37:39.209Z,12.11
2022-12-25T12:40:20.889Z,11.86
2022-12-25T12:42:50.392Z,11.77
2022-12-25T12:45:20.558Z,11.51
2022-12-25T12:47:49.808Z,11.34
2022-12-25T12:50:31.453Z,11.27
2022-12-25T12:53:00.541Z,11.07
2022-12-25T12:55:33.126Z,11.00
2022-12-25T12:58:05.084Z,11.07
2022-12-25T13:00:49.727Z,10.90
2022-12-25T13:03:43.854Z,11.11
2022-12-25T13:06:52.360Z,11.02
2022-12-25T13:09:28.726Z,11.26
2022-12-25T13:11:55.473Z,11.30
2022-12-25T13:14:24.256Z,11.30
2022-12-25T13:16:54.235Z,11.35
2022-12-25T13:19:27.639Z,11.34
2022-12-25T13:22:00.420Z,11.57
2022-12-25T13:24:29.966Z,11.39
2022-12-25T13:26:56.919Z,11.25
2022-12-25T13:29:23.916Z,11.24
2022-12-25T13:31:50.641Z,11.26
2022-12-25T13:34:27.521Z,11.11
2022-12-25T13:36:54.634Z,11.03
2022-12-25T13:39:25.030Z,11.04
2022-12-25T13:42:05.600Z,11.00
2022-12-25T13:44:51.900Z,11.02
2022-12-25T13:47:22.408Z,10.83
2022-12-25T13:49:50.632Z,10.41
2022-12-25T13:52:21.215Z,10.41
2022-12-25T13:55:00.076Z,10.34
2022-12-25T13:57:34.207Z,10.25
2022-12-25T14:00:01.710Z,10.09
2022-12-25T14:02:32.142Z,9.80
2022-12-25T14:04:59.001Z,9.92
2022-12-25T14:07:27.326Z,10.01
2022-12-25T14:09:58.306Z,9.98
2022-12-25T14:12:25.942Z,9.96
2022-12-25T14:14:53.808Z,9.79
2022-12-25T14:17:22.223Z,9.85
2022-12-25T14:20:05.703Z,9.69
2022-12-25T14:22:36.017Z,9.66
2022-12-25T14:25:02.654Z,9.79
2022-12-25T14:27:32.473Z,9.55
2022-12-25T14:30:01.352Z,9.59
2022-12-25T14:32:31.043Z,9.45
2022-12-25T14:35:02.779Z,9.27
2022-12-25T14:37:31.387Z,9.23
2022-12-25T14:39:59.380Z,9.10
2022-12-25T14:42:32.243Z,8.89
2022-12-25T14:45:24.726Z,8.82
2022-12-25T14:47:54.385Z,8.80
2022-12-25T14:50:33.240Z,8.71
2022-12-25T14:53:00.326Z,8.59
2022-12-25T14:55:29.256Z,8.48
2022-12-25T14:58:04.567Z,8.48
2022-12-25T15:00:35.622Z,8.30
2022-12-25T15:03:15.777Z,8.29
2022-12-25T15:05:42.539Z,8.18
2022-12-25T15:08:10.191Z,8.11
2022-12-25T15:13:25.451Z,7.82
2022-12-25T15:16:14.644Z,7.67
2022-12-25T15:18:45.356Z,7.49
2022-12-25T15:21:28.548Z,7.30
2022-12-25T15:23:56.762Z,7.17
2022-12-25T15:26:24.212Z,7.10
2022-12-25T15:28:51.067Z,7.03
2022-12-25T15:31:27.347Z,7.04
2022-12-25T15:33:56.337Z,6.87
2022-12-25T15:36:24.216Z,6.76
2022-12-25T15:38:51.509Z,6.77
2022-12-25T15:41:43.628Z,6.74
2022-12-25T15:44:11.998Z,6.71
2022-12-25T15:46:38.752Z,6.70
2022-12-25T15:49:05.666Z,6.57
2022-12-25T15:51:32.335Z,6.69
2022-12-25T15:53:59.679Z,6.55
2022-12-25T15:56:26.933Z,6.58
2022-12-25T15:58:53.715Z,6.47
2022-12-25T16:01:21.207Z,6.50
2022-12-25T16:03:48.089Z,6.42
2022-12-25T16:06:17.102Z,6.30
2022-12-25T16:08:44.353Z,6.24
2022-12-25T16:11:11.489Z,6.22
2022-12-25T16:13:38.218Z,6.15
2022-12-25T16:16:06.809Z,6.17
2022-12-25T16:18:33.844Z,6.10
2022-12-25T16:21:00.614Z,6.10
2022-12-25T16:23:27.533Z,6.08
2022-12-25T16:25:54.161Z,6.03
2022-12-25T16:28:20.878Z,5.96
2022-12-25T16:30:47.862Z,5.74
2022-12-25T16:33:15.301Z,5.81
2022-12-25T16:35:42.078Z,5.86
2022-12-25T16:38:08.770Z,5.79
2022-12-25T16:40:35.474Z,5.84
2022-12-25T16:43:02.206Z,5.90
2022-12-25T16:45:28.829Z,5.80
2022-12-25T16:47:57.074Z,5.83
2022-12-25T16:50:23.892Z,5.82
2022-12-25T16:52:50.549Z,5.84
2022-12-25T16:55:17.171Z,5.72
2022-12-25T16:57:43.915Z,5.69
2022-12-25T17:00:12.455Z,5.74
2022-12-25T17:02:40.890Z,5.75
2022-12-25T17:05:08.025Z,5.63
2022-12-25T17:07:36.759Z,5.66
2022-12-25T17:10:05.329Z,5.62
2022-12-25T17:12:32.022Z,5.60
2022-12-25T17:14:58.690Z,5.58
2022-12-25T17:17:25.982Z,5.59
2022-12-25T17:19:52.671Z,5.49
2022-12-25T17:22:19.405Z,5.48
2022-12-25T17:24:46.096Z,5.50
2022-12-25T17:27:12.897Z,5.40
2022-12-25T17:29:43.981Z,5.32
2022-12-25T17:32:11.652Z,5.20
2022-12-25T17:34:38.392Z,5.00
2022-12-25T17:37:05.384Z,4.99
2022-12-25T17:39:32.315Z,5.07
2022-12-25T17:41:59.031Z,5.07
2022-12-25T17:44:25.988Z,5.08
2022-12-25T17:46:53.028Z,4.97
2022-12-25T17:49:21.594Z,5.03
2022-12-25T17:51:48.354Z,4.91
2022-12-25T17:54:14.964Z,4.88
2022-12-25T17:56:41.552Z,4.98
2022-12-25T17:59:10.449Z,4.99
2022-12-25T18:01:38.727Z,5.06
2022-12-25T18:04:06.482Z,5.10
2022-12-25T18:06:35.454Z,5.14
2022-12-25T18:09:02.434Z,5.22
2022-12-25T18:11:32.987Z,5.20
2022-12-25T18:14:04.695Z,5.27
2022-12-25T18:16:34.997Z,5.32
2022-12-25T18:19:02.094Z,5.27
2022-12-25T18:21:29.076Z,5.25
2022-12-25T18:23:56.007Z,5.29
2022-12-25T18:26:23.510Z,5.25
2022-12-25T18:28:50.905Z,5.36
2022-12-25T18:31:21.011Z,5.35
2022-12-25T18:33:48.605Z,5.40
2022-12-25T18:36:17.589Z,5.45
2022-12-25T18:38:44.279Z,5.35
2022-12-25T18:41:11.333Z,5.23
2022-12-25T18:43:53.427Z,5.21
2022-12-25T18:46:24.605Z,5.19
2022-12-25T18:48:52.076Z,5.24
2022-12-25T18:51:18.831Z,5.27
2022-12-25T18:53:45.996Z,5.28
2022-12-25T18:56:15.602Z,5.25
2022-12-25T18:58:43.044Z,5.18
2022-12-25T19:01:14.552Z,5.17
2022-12-25T19:03:41.947Z,5.10
2022-12-25T19:06:08.683Z,5.08
2022-12-25T19:08:36.509Z,5.03
2022-12-25T19:11:07.158Z,5.03
2022-12-25T19:13:33.789Z,5.00
2022-12-25T19:16:00.582Z,5.03
2022-12-25T19:18:27.273Z,5.05
2022-12-25T19:20:53.928Z,5.04
2022-12-25T19:23:20.515Z,5.05
2022-12-25T19:25:47.721Z,5.11
2022-12-25T19:28:14.423Z,5.08
2022-12-25T19:30:41.065Z,5.08
2022-12-25T19:33:12.353Z,5.18
2022-12-25T19:35:42.308Z,5.27
2022-12-25T19:38:09.028Z,5.28
2022-12-25T19:40:40.660Z,5.28
2022-12-25T19:43:07.315Z,5.33
2022-12-25T19:45:34.175Z,5.29
2022-12-25T19:48:00.950Z,5.33
2022-12-25T19:50:31.748Z,5.38
2022-12-25T19:52:58.428Z,5.36
2022-12-25T19:55:25.080Z,5.42
2022-12-25T19:57:51.861Z,5.45
2022-12-25T20:00:18.576Z,5.47
2022-12-25T20:02:45.305Z,5.52
2022-12-25T20:05:12.388Z,5.53
2022-12-25T20:07:39.040Z,5.55
2022-12-25T20:10:06.259Z,5.60
2022-12-25T20:12:33.001Z,5.60
2022-12-25T20:14:59.662Z,5.59
2022-12-25T20:17:26.429Z,5.53
2022-12-25T20:19:53.065Z,5.58
2022-12-25T20:22:19.732Z,5.59
2022-12-25T20:24:47.805Z,5.51
2022-12-25T20:27:15.419Z,5.50
2022-12-25T20:29:42.034Z,5.52
2022-12-25T20:32:09.535Z,5.56
2022-12-25T20:34:36.285Z,5.56
2022-12-25T20:37:03.196Z,5.54
2022-12-25T20:39:30.032Z,5.53
2022-12-25T20:41:56.678Z,5.55
2022-12-25T20:44:23.645Z,5.52
2022-12-25T20:46:50.332Z,5.48
2022-12-25T20:49:16.964Z,5.43
2022-12-25T20:51:43.605Z,5.49
2022-12-25T20:54:12.674Z,5.42
2022-12-25T20:56:40.313Z,5.38
2022-12-25T20:59:07.130Z,5.41
2022-12-25T21:01:33.877Z,5.40
2022-12-25T21:04:00.739Z,5.48
2022-12-25T21:06:27.484Z,5.53
2022-12-25T21:08:54.348Z,5.56
2022-12-25T21:11:21.423Z,5.58
2022-12-25T21:13:49.305Z,5.60
2022-12-25T21:16:19.025Z,5.62
2022-12-25T21:18:46.670Z,5.67
2022-12-25T21:21:13.755Z,5.73
2022-12-25T21:23:40.640Z,5.79
2022-12-25T21:26:18.468Z,5.71
2022-12-25T21:28:49.850Z,5.77
2022-12-25T21:31:17.756Z,5.65
2022-12-25T21:33:54.969Z,5.69
2022-12-25T21:36:34.411Z,5.63
2022-12-25T21:39:07.169Z,5.60
2022-12-25T21:41:35.599Z,5.45
2022-12-25T21:44:02.321Z,5.49
2022-12-25T21:46:29.312Z,5.37
2022-12-25T21:48:57.249Z,5.23
2022-12-25T21:51:51.055Z,5.22
2022-12-25T21:54:19.625Z,5.23
2022-12-25T21:56:47.993Z,5.23
2022-12-25T21:59:20.421Z,5.19
2022-12-25T22:01:48.811Z,5.14
2022-12-25T22:04:16.864Z,5.09
2022-12-25T22:07:02.062Z,5.04
2022-12-25T22:09:28.894Z,4.96
2022-12-25T22:12:14.485Z,4.91
2022-12-25T22:14:53.743Z,4.77
2022-12-25T22:17:54.368Z,4.74
2022-12-25T22:20:23.295Z,4.70
2022-12-25T22:22:50.626Z,4.64
2022-12-25T22:25:18.027Z,4.56
2022-12-25T22:27:46.101Z,4.51
2022-12-25T22:30:20.839Z,4.47
2022-12-25T22:32:48.059Z,4.39
2022-12-25T22:35:15.858Z,4.31
2022-12-25T22:37:43.205Z,4.17
2022-12-25T22:40:13.151Z,4.08
2022-12-25T22:42:40.180Z,4.15
2022-12-25T22:45:07.451Z,4.22
2022-12-25T22:47:34.311Z,4.10
2022-12-25T22:50:01.005Z,4.23
2022-12-25T22:52:27.836Z,4.32
2022-12-25T22:54:54.545Z,4.38
2022-12-25T22:57:21.286Z,4.38
2022-12-25T22:59:47.914Z,4.51
2022-12-25T23:02:14.745Z,4.60
2022-12-25T23:04:41.693Z,4.50
2022-12-25T23:07:08.759Z,4.48
2022-12-25T23:09:35.548Z,4.52
2022-12-25T23:12:02.165Z,4.54
2022-12-25T23:14:40.752Z,4.52
2022-12-25T23:17:30.588Z,4.47
2022-12-25T23:20:17.482Z,4.45
2022-12-25T23:23:03.500Z,4.45
2022-12-25T23:25:49.110Z,4.46
2022-12-25T23:28:35.815Z,4.44
2022-12-25T23:31:02.622Z,4.43
2022-12-25T23:33:29.523Z,4.45
2022-12-25T23:35:56.372Z,4.42
2022-12-25T23:38:23.047Z,4.35
2022-12-25T23:40:49.778Z,4.30
2022-12-25T23:43:16.585Z,4.26
2022-12-25T23:45:43.266Z,4.31
2022-12-25T23:48:09.961Z,4.37
2022-12-25T23:50:36.624Z,4.38
2022-12-25T23:53:03.305Z,4.38
2022-12-25T23:55:29.964Z,4.43
2022-12-25T23:57:56.626Z,4.48
